createdAt,value
2023-02-28T00:00:46.895Z,2.40
2023-02-28T00:18:55.720Z,2.30
2023-02-28T00:23:08.034Z,2.30
2023-02-28T00:27:34.380Z,2.20
2023-02-28T00:36:54.909Z,2.10
2023-02-28T00:41:31.351Z,2.10
2023-02-28T00:50:22.252Z,2.10
2023-02-28T00:54:47.727Z,2.00
2023-02-28T01:08:12.956Z,1.90
2023-02-28T01:13:10.602Z,1.90
2023-02-28T01:22:21.245Z,1.90
2023-02-28T01:26:36.735Z,1.90
2023-02-28T01:31:09.850Z,1.90
2023-02-28T01:35:27.905Z,1.90
2023-02-28T01:39:49.473Z,1.90
2023-02-28T01:44:10.732Z,1.70
2023-02-28T01:53:01.730Z,1.70
2023-02-28T01:57:21.213Z,1.80
2023-02-28T02:01:58.544Z,1.80
2023-02-28T02:06:39.144Z,1.70
2023-02-28T02:10:59.011Z,1.70
2023-02-28T02:15:17.477Z,1.70
2023-02-28T02:19:59.282Z,1.50
2023-02-28T02:24:44.150Z,1.40
2023-02-28T02:29:32.391Z,1.40
2023-02-28T02:34:22.708Z,1.20
2023-02-28T02:38:48.516Z,1.20
2023-02-28T02:43:14.689Z,1.20
2023-02-28T02:47:42.934Z,1.20
2023-02-28T02:56:38.910Z,1.20
2023-02-28T03:01:04.183Z,1.20
2023-02-28T03:05:24.370Z,1.20
2023-02-28T03:09:50.510Z,1.20
2023-02-28T03:14:38.111Z,1.10
2023-02-28T03:28:17.737Z,0.90
2023-02-28T03:32:38.915Z,0.80
2023-02-28T03:36:56.387Z,0.70
2023-02-28T03:41:23.481Z,0.70
2023-02-28T03:46:10.071Z,0.80
2023-02-28T03:54:58.436Z,0.90
2023-02-28T03:59:16.860Z,0.80
2023-02-28T04:03:51.242Z,1.00
2023-02-28T04:08:18.063Z,1.00
2023-02-28T04:12:51.336Z,1.00
2023-02-28T04:17:22.123Z,1.10
2023-02-28T04:26:23.657Z,0.90
2023-02-28T04:35:03.200Z,0.90
2023-02-28T04:39:27.694Z,0.70
2023-02-28T04:43:44.775Z,0.70
2023-02-28T04:48:03.236Z,0.70
2023-02-28T04:52:15.273Z,0.80
2023-02-28T04:56:41.897Z,0.90
2023-02-28T05:05:20.810Z,0.90
2023-02-28T05:14:06.645Z,1.20
2023-02-28T05:18:18.891Z,1.30
2023-02-28T05:26:57.972Z,1.40
2023-02-28T05:31:16.730Z,1.50
2023-02-28T05:35:29.077Z,1.60
2023-02-28T05:39:44.594Z,1.70
2023-02-28T05:43:56.767Z,1.70
2023-02-28T05:48:16.304Z,1.70
2023-02-28T05:57:19.053Z,1.80
2023-02-28T06:01:42.195Z,1.80
2023-02-28T06:06:06.439Z,1.80
2023-02-28T06:10:16.596Z,1.70
2023-02-28T06:14:27.137Z,1.70
2023-02-28T06:18:40.494Z,1.70
2023-02-28T06:22:57.005Z,1.60
2023-02-28T06:27:08.073Z,1.60
2023-02-28T06:31:23.324Z,1.60
2023-02-28T06:35:35.830Z,1.60
2023-02-28T06:39:48.692Z,1.50
2023-02-28T06:44:01.654Z,1.50
2023-02-28T06:48:11.978Z,1.40
2023-02-28T06:52:25.273Z,1.40
2023-02-28T06:56:37.732Z,1.30
2023-02-28T07:00:48.630Z,1.20
2023-02-28T07:04:58.755Z,1.00
2023-02-28T07:13:20.986Z,0.90
2023-02-28T07:17:33.470Z,1.00
2023-02-28T07:21:45.892Z,1.00
2023-02-28T07:25:57.749Z,1.00
2023-02-28T07:30:13.833Z,1.00
2023-02-28T07:34:26.673Z,1.00
2023-02-28T07:38:49.768Z,1.00
2023-02-28T07:43:03.516Z,1.10
2023-02-28T07:47:16.995Z,1.10
2023-02-28T07:51:26.585Z,1.20
2023-02-28T07:55:36.752Z,1.30
2023-02-28T07:59:46.301Z,1.40
2023-02-28T08:03:58.588Z,1.70
2023-02-28T08:08:07.939Z,2.00
2023-02-28T08:12:17.620Z,2.30
2023-02-28T08:16:27.424Z,2.60
2023-02-28T08:20:40.171Z,2.90
2023-02-28T08:24:50.932Z,3.10
2023-02-28T08:29:01.524Z,3.30
2023-02-28T08:33:12.154Z,3.40
2023-02-28T08:37:25.309Z,3.50
2023-02-28T08:50:14.349Z,3.80
2023-02-28T08:54:32.745Z,3.90
2023-02-28T09:03:30.531Z,4.50
2023-02-28T09:21:07.457Z,5.20
2023-02-28T09:25:34.336Z,5.40
2023-02-28T09:29:46.909Z,5.60
2023-02-28T09:33:58.600Z,5.80
2023-02-28T09:38:10.038Z,5.80
2023-02-28T09:42:28.004Z,6.10
2023-02-28T09:46:43.615Z,6.30
2023-02-28T09:50:56.538Z,6.60
2023-02-28T09:55:23.953Z,6.70
2023-02-28T10:00:06.974Z,6.70
2023-02-28T10:04:26.899Z,6.80
2023-02-28T10:08:54.395Z,6.90
2023-02-28T10:13:10.614Z,7.20
2023-02-28T10:17:24.594Z,7.40
2023-02-28T10:21:50.601Z,7.40
2023-02-28T10:30:44.036Z,7.30
2023-02-28T10:34:55.412Z,7.50
2023-02-28T10:39:05.856Z,7.70
2023-02-28T10:43:27.706Z,7.90
2023-02-28T10:47:44.533Z,8.10
2023-02-28T10:52:01.123Z,8.10
2023-02-28T10:56:21.316Z,8.10
2023-02-28T11:00:37.800Z,8.00
2023-02-28T11:05:06.719Z,7.60
2023-02-28T11:09:27.332Z,7.50
2023-02-28T11:13:39.477Z,7.80
2023-02-28T11:17:57.624Z,8.30
2023-02-28T11:22:09.664Z,8.50
2023-02-28T11:26:38.595Z,8.70
2023-02-28T11:30:48.806Z,8.90
2023-02-28T11:35:16.749Z,9.30
2023-02-28T11:39:45.650Z,9.40
2023-02-28T11:44:17.632Z,9.70
2023-02-28T11:48:36.244Z,9.80
2023-02-28T11:57:24.744Z,10.10
2023-02-28T12:06:12.155Z,9.70
2023-02-28T12:10:26.063Z,9.80
2023-02-28T12:15:07.074Z,10.10
2023-02-28T12:19:37.699Z,10.10
2023-02-28T12:24:06.482Z,9.60
2023-02-28T12:28:55.925Z,9.10
2023-02-28T12:33:13.556Z,9.20
2023-02-28T12:37:31.853Z,9.50
2023-02-28T12:41:58.830Z,9.70
2023-02-28T13:00:04.216Z,10.40
2023-02-28T13:04:46.832Z,10.50
2023-02-28T13:09:08.111Z,10.10
2023-02-28T13:13:20.136Z,9.60
2023-02-28T13:17:32.723Z,9.70
2023-02-28T13:21:48.889Z,9.80
2023-02-28T13:26:01.064Z,9.90
2023-02-28T13:39:55.524Z,10.60
2023-02-28T13:44:07.193Z,10.30
2023-02-28T13:52:52.388Z,9.70
2023-02-28T13:57:35.076Z,10.10
2023-02-28T14:11:11.133Z,10.80
2023-02-28T14:20:16.587Z,11.10
2023-02-28T14:33:29.626Z,10.00
2023-02-28T14:37:43.789Z,10.40
2023-02-28T14:42:00.225Z,10.40
2023-02-28T14:46:10.047Z,10.50
2023-02-28T14:50:42.071Z,10.40
2023-02-28T14:54:59.562Z,10.80
2023-02-28T14:59:33.229Z,10.80
2023-02-28T15:03:46.844Z,9.80
2023-02-28T15:12:34.307Z,9.90
2023-02-28T15:16:47.312Z,9.80
2023-02-28T15:25:30.230Z,9.60
2023-02-28T15:29:52.214Z,9.60
2023-02-28T15:34:06.422Z,9.60
2023-02-28T15:38:19.245Z,9.30
2023-02-28T15:42:35.792Z,9.20
2023-02-28T15:46:59.408Z,9.20
2023-02-28T15:51:12.164Z,9.50
2023-02-28T15:55:23.961Z,9.50
2023-02-28T15:59:34.969Z,9.60
2023-02-28T16:03:49.027Z,9.50
2023-02-28T16:07:59.274Z,9.30
2023-02-28T16:12:14.597Z,9.00
2023-02-28T16:16:26.607Z,8.90
2023-02-28T16:20:39.101Z,8.90
2023-02-28T16:24:50.928Z,8.90
2023-02-28T16:29:00.849Z,8.80
2023-02-28T16:33:11.348Z,8.70
2023-02-28T16:37:22.504Z,8.70
2023-02-28T16:41:34.316Z,8.80
2023-02-28T16:45:43.765Z,8.90
2023-02-28T16:49:54.225Z,8.80
2023-02-28T16:54:05.685Z,8.70
2023-02-28T16:58:18.948Z,8.50
2023-02-28T17:02:28.422Z,7.70
2023-02-28T17:06:38.507Z,7.40
2023-02-28T17:10:51.005Z,7.20
2023-02-28T20:04:17.019Z,6.10
2023-02-28T20:13:28.125Z,6.30
2023-02-28T21:09:24.582Z,6.30
2023-02-28T21:33:06.171Z,6.40
2023-02-28T21:42:12.749Z,6.30
2023-02-28T21:51:03.036Z,6.20
2023-02-28T21:55:17.229Z,6.20
2023-02-28T21:59:26.713Z,6.10
2023-02-28T22:04:04.399Z,6.10
2023-02-28T22:08:20.113Z,6.10
2023-02-28T22:12:53.149Z,6.10
2023-02-28T22:17:02.859Z,6.10
2023-02-28T22:21:31.718Z,6.00
2023-02-28T22:25:48.668Z,6.00
2023-02-28T22:29:59.550Z,5.90
2023-02-28T22:34:19.352Z,5.80
2023-02-28T22:38:29.527Z,5.80
2023-02-28T22:43:29.969Z,5.80
2023-02-28T22:48:01.339Z,5.70
